createdAt,value
2023-05-13T00:00:07.005Z,101437.25
2023-05-13T00:02:38.412Z,101452.03
2023-05-13T00:05:09.083Z,101437.22
2023-05-13T00:07:38.905Z,101455.47
2023-05-13T00:10:12.617Z,101435.72
2023-05-13T00:12:42.375Z,101452.88
2023-05-13T00:15:13.123Z,101439.56
2023-05-13T00:17:42.944Z,101439.19
2023-05-13T00:20:13.022Z,101459.16
2023-05-13T00:22:42.754Z,101381.50
2023-05-13T00:25:15.264Z,101453.16
2023-05-13T00:27:45.036Z,101448.84
2023-05-13T00:30:15.278Z,101436.59
2023-05-13T00:32:45.071Z,101447.13
2023-05-13T00:35:15.002Z,101412.25
2023-05-13T00:37:45.164Z,101447.91
2023-05-13T00:40:22.912Z,101422.28
2023-05-13T00:42:53.765Z,101444.81
2023-05-13T00:45:24.018Z,101429.88
2023-05-13T00:47:54.566Z,101453.22
2023-05-13T00:50:24.666Z,101454.19
2023-05-13T00:52:54.713Z,101452.63
2023-05-13T00:55:27.096Z,101454.38
2023-05-13T00:57:56.855Z,101447.31
2023-05-13T01:00:26.821Z,101447.50
2023-05-13T01:03:01.994Z,101452.91
2023-05-13T01:05:42.458Z,101462.28
2023-05-13T01:08:23.009Z,101448.28
2023-05-13T01:11:00.597Z,101436.19
2023-05-13T01:13:37.124Z,101444.63
2023-05-13T01:16:13.601Z,101446.97
2023-05-13T01:18:47.925Z,101446.06
2023-05-13T01:21:17.787Z,101408.13
2023-05-13T01:23:50.150Z,101449.63
2023-05-13T01:26:19.930Z,101403.75
2023-05-13T01:28:50.212Z,101436.69
2023-05-13T01:31:21.926Z,101451.19
2023-05-13T01:33:53.002Z,101426.66
2023-05-13T01:36:23.552Z,101459.53
2023-05-13T01:38:58.529Z,101462.00
2023-05-13T01:41:30.410Z,101435.88
2023-05-13T01:44:00.529Z,101459.69
2023-05-13T01:46:32.209Z,101439.94
2023-05-13T01:49:02.215Z,101430.44
2023-05-13T01:51:32.103Z,101459.75
2023-05-13T01:54:04.482Z,101460.75
2023-05-13T01:56:35.065Z,101457.59
2023-05-13T01:59:05.772Z,101455.34
2023-05-13T02:01:35.565Z,101452.94
2023-05-13T02:04:05.393Z,101436.44
2023-05-13T02:06:35.270Z,101432.91
2023-05-13T02:09:08.384Z,101431.94
2023-05-13T02:11:41.383Z,101460.41
2023-05-13T02:14:11.229Z,101456.78
2023-05-13T02:16:41.149Z,101454.06
2023-05-13T02:19:11.048Z,101461.69
2023-05-13T02:21:41.359Z,101449.66
2023-05-13T02:24:13.984Z,101434.91
2023-05-13T02:26:45.229Z,101449.59
2023-05-13T02:29:15.132Z,101456.13
2023-05-13T02:31:45.183Z,101435.03
2023-05-13T02:34:15.032Z,101457.88
2023-05-13T02:36:44.828Z,101472.91
2023-05-13T02:39:17.297Z,101464.59
2023-05-13T02:41:47.140Z,101466.63
2023-05-13T02:44:17.128Z,101448.63
2023-05-13T02:46:47.587Z,101458.78
2023-05-13T02:49:18.380Z,101469.25
2023-05-13T02:51:48.537Z,101459.72
2023-05-13T02:54:22.311Z,101455.50
2023-05-13T02:56:52.192Z,101465.94
2023-05-13T02:59:21.940Z,101471.91
2023-05-13T03:01:51.817Z,101468.44
2023-05-13T03:04:21.814Z,101462.28
2023-05-13T03:06:53.126Z,101464.81
2023-05-13T03:09:25.590Z,101438.97
2023-05-13T03:11:55.420Z,101469.94
2023-05-13T03:14:25.175Z,101456.00
2023-05-13T03:16:55.114Z,101462.03
2023-05-13T03:19:24.849Z,101471.50
2023-05-13T03:21:55.291Z,101467.84
2023-05-13T03:24:27.784Z,101477.38
2023-05-13T03:26:57.906Z,101477.56
2023-05-13T03:29:27.820Z,101472.19
2023-05-13T03:31:57.787Z,101403.56
2023-05-13T03:34:28.162Z,101458.84
2023-05-13T03:36:58.216Z,101467.44
2023-05-13T03:39:31.829Z,101460.28
2023-05-13T03:42:01.770Z,101428.66
2023-05-13T03:44:31.623Z,101488.25
2023-05-13T03:47:01.588Z,101475.91
2023-05-13T03:49:32.057Z,101486.31
2023-05-13T03:52:01.886Z,101484.44
2023-05-13T03:54:34.380Z,101478.59
2023-05-13T03:57:04.677Z,101494.91
2023-05-13T03:59:34.481Z,101484.63
2023-05-13T04:02:04.295Z,101469.19
2023-05-13T04:04:34.112Z,101425.97
2023-05-13T04:07:03.950Z,101483.38
2023-05-13T04:09:36.656Z,101483.28
2023-05-13T04:12:06.683Z,101491.63
2023-05-13T04:14:36.965Z,101492.72
2023-05-13T04:17:07.106Z,101475.47
2023-05-13T04:19:37.025Z,101492.72
2023-05-13T04:22:07.065Z,101415.00
2023-05-13T04:24:39.458Z,101501.41
2023-05-13T04:27:09.430Z,101435.19
2023-05-13T04:29:39.371Z,101492.09
2023-05-13T04:32:09.971Z,101499.03
2023-05-13T04:34:40.793Z,101463.81
2023-05-13T04:37:10.708Z,101496.16
2023-05-13T04:39:43.214Z,101475.66
2023-05-13T04:42:13.246Z,101503.41
2023-05-13T04:44:43.223Z,101486.31
2023-05-13T04:47:13.294Z,101497.97
2023-05-13T04:49:43.286Z,101515.00
2023-05-13T04:52:14.376Z,101505.69
2023-05-13T04:54:46.718Z,101504.50
2023-05-13T04:57:16.532Z,101517.53
2023-05-13T04:59:46.316Z,101497.00
2023-05-13T05:02:16.961Z,101484.78
2023-05-13T05:04:49.460Z,101497.91
2023-05-13T05:07:19.662Z,101474.66
2023-05-13T05:09:52.674Z,101507.88
2023-05-13T05:12:22.469Z,101527.91
2023-05-13T05:14:52.222Z,101530.78
2023-05-13T05:17:22.079Z,101520.75
2023-05-13T05:19:51.915Z,101515.00
2023-05-13T05:22:21.698Z,101521.16
2023-05-13T05:24:54.052Z,101462.50
2023-05-13T05:27:23.870Z,101520.53
2023-05-13T05:29:53.598Z,101518.91
2023-05-13T05:32:23.635Z,101511.47
2023-05-13T05:34:53.497Z,101521.09
2023-05-13T05:37:23.281Z,101503.81
2023-05-13T05:39:55.670Z,101517.81
2023-05-13T05:42:25.543Z,101478.94
2023-05-13T05:44:55.820Z,101524.16
2023-05-13T05:47:26.452Z,101512.34
2023-05-13T05:49:56.228Z,101528.97
2023-05-13T05:52:26.106Z,101520.78
2023-05-13T05:54:58.445Z,101508.22
2023-05-13T05:57:28.176Z,101511.13
2023-05-13T05:59:57.987Z,101500.13
2023-05-13T06:02:27.797Z,101505.53
2023-05-13T06:04:57.644Z,101527.38
2023-05-13T06:07:27.544Z,101506.72
2023-05-13T06:10:00.042Z,101515.69
2023-05-13T06:12:29.852Z,101513.22
2023-05-13T06:14:59.610Z,101516.16
2023-05-13T06:17:29.411Z,101524.13
2023-05-13T06:20:01.315Z,101512.19
2023-05-13T06:22:31.151Z,101523.31
2023-05-13T06:25:03.528Z,101511.44
2023-05-13T06:27:34.153Z,101496.16
2023-05-13T06:30:04.128Z,101528.16
2023-05-13T06:32:33.958Z,101512.69
2023-05-13T06:35:03.901Z,101513.53
2023-05-13T06:37:33.778Z,101529.91
2023-05-13T06:40:06.713Z,101516.81
2023-05-13T06:42:42.516Z,101528.91
2023-05-13T06:45:26.053Z,101517.63
2023-05-13T06:47:56.629Z,101499.59
2023-05-13T06:50:26.486Z,101532.56
2023-05-13T06:52:56.246Z,101535.06
2023-05-13T06:55:28.600Z,101471.47
2023-05-13T06:57:58.312Z,101512.97
2023-05-13T07:00:28.253Z,101497.50
2023-05-13T07:02:57.964Z,101508.81
2023-05-13T07:05:27.865Z,101531.97
2023-05-13T07:07:57.683Z,101524.38
2023-05-13T07:10:30.062Z,101532.28
2023-05-13T07:12:59.868Z,101533.19
2023-05-13T07:15:29.632Z,101529.84
2023-05-13T07:17:59.465Z,101524.75
2023-05-13T07:20:29.261Z,101516.88
2023-05-13T07:22:59.028Z,101512.56
2023-05-13T07:25:31.334Z,101520.34
2023-05-13T07:28:01.181Z,101516.97
2023-05-13T07:30:31.021Z,101519.66
2023-05-13T07:33:00.868Z,101517.03
2023-05-13T07:35:30.649Z,101528.28
2023-05-13T07:38:00.358Z,101511.00
2023-05-13T07:40:32.694Z,101518.75
2023-05-13T07:43:02.428Z,101521.38
2023-05-13T07:45:32.321Z,101530.97
2023-05-13T07:48:02.106Z,101532.72
2023-05-13T07:50:31.839Z,101508.47
2023-05-13T07:53:01.565Z,101531.81
2023-05-13T07:55:33.866Z,101533.59
2023-05-13T07:58:03.618Z,101534.41
2023-05-13T08:00:33.638Z,101523.28
2023-05-13T08:03:04.274Z,101470.75
2023-05-13T08:05:34.192Z,101533.72
2023-05-13T08:08:04.119Z,101535.44
2023-05-13T08:10:36.466Z,101507.00
2023-05-13T08:13:06.209Z,101513.06
2023-05-13T08:15:37.207Z,101499.25
2023-05-13T08:18:07.085Z,101536.34
2023-05-13T08:20:36.948Z,101510.50
2023-05-13T08:23:07.004Z,101507.94
2023-05-13T08:25:39.337Z,101536.34
2023-05-13T08:28:09.111Z,101496.69
2023-05-13T08:30:40.910Z,101529.47
2023-05-13T08:33:11.418Z,101506.19
2023-05-13T08:35:42.918Z,101521.69
2023-05-13T08:38:13.975Z,101525.13
2023-05-13T08:40:47.801Z,101503.56
2023-05-13T08:43:18.978Z,101530.28
2023-05-13T08:45:50.852Z,101516.50
2023-05-13T08:48:22.617Z,101526.84
2023-05-13T08:50:52.804Z,101524.22
2023-05-13T08:53:24.134Z,101504.41
2023-05-13T08:55:57.415Z,101497.41
2023-05-13T08:58:27.935Z,101505.09
2023-05-13T09:00:58.842Z,101517.16
2023-05-13T09:03:30.570Z,101493.88
2023-05-13T09:06:03.437Z,101499.81
2023-05-13T09:08:33.185Z,101493.75
2023-05-13T09:11:05.827Z,101509.13
2023-05-13T09:13:35.558Z,101517.78
2023-05-13T09:16:06.160Z,101512.63
2023-05-13T09:18:36.877Z,101509.22
2023-05-13T09:21:27.778Z,101510.06
2023-05-13T09:24:19.084Z,101514.31
2023-05-13T09:26:52.856Z,101508.25
2023-05-13T09:29:25.360Z,101494.41
2023-05-13T09:31:56.771Z,101490.97
2023-05-13T09:34:31.413Z,101518.59
2023-05-13T09:37:04.304Z,101511.66
2023-05-13T09:39:35.902Z,101509.03
2023-05-13T09:42:08.914Z,101499.41
2023-05-13T09:44:39.057Z,101494.22
2023-05-13T09:47:09.066Z,101493.31
2023-05-13T09:49:38.951Z,101487.31
2023-05-13T09:52:11.744Z,101490.69
2023-05-13T09:54:42.000Z,101483.81
2023-05-13T09:57:15.984Z,101507.09
2023-05-13T09:59:45.740Z,101488.06
2023-05-13T10:02:18.187Z,101488.69
2023-05-13T10:04:48.336Z,101505.94
2023-05-13T10:07:18.099Z,101495.50
2023-05-13T10:09:49.263Z,101470.69
2023-05-13T10:12:23.685Z,101472.41
2023-05-13T10:14:54.878Z,101486.03
2023-05-13T10:17:27.893Z,101472.16
2023-05-13T10:20:01.025Z,101192.72
2023-05-13T10:27:02.801Z,101189.38
2023-05-13T10:30:03.898Z,101516.09
2023-05-13T10:32:35.225Z,101496.88
2023-05-13T10:35:10.352Z,101449.41
2023-05-13T10:38:09.309Z,101178.69
2023-05-13T10:41:19.670Z,101403.72
2023-05-13T10:44:09.978Z,101485.41
2023-05-13T10:46:45.721Z,101298.81
2023-05-13T10:49:18.252Z,101457.63
2023-05-13T10:51:49.584Z,101467.03
2023-05-13T10:54:24.961Z,101444.59
2023-05-13T10:57:00.192Z,101463.56
2023-05-13T10:59:30.863Z,101484.22
2023-05-13T11:02:05.511Z,101480.69
2023-05-13T11:04:35.322Z,101442.56
2023-05-13T11:07:18.416Z,101479.44
2023-05-13T11:09:53.570Z,101463.34
2023-05-13T11:12:23.458Z,101471.22
2023-05-13T11:14:53.270Z,101484.47
2023-05-13T11:17:26.202Z,101479.59
2023-05-13T11:19:56.180Z,101447.13
2023-05-13T11:22:27.660Z,101454.97
2023-05-13T11:25:08.454Z,101488.31
2023-05-13T11:27:41.811Z,101465.81
2023-05-13T11:30:25.012Z,101464.72
2023-05-13T11:33:02.932Z,101475.03
2023-05-13T11:35:34.324Z,101478.50
2023-05-13T11:38:05.906Z,101469.84
2023-05-13T11:40:38.446Z,101470.63
2023-05-13T11:43:09.077Z,101478.34
2023-05-13T11:45:42.448Z,101443.84
2023-05-13T11:48:26.465Z,101440.38
2023-05-13T11:51:00.393Z,101326.00
2023-05-13T11:53:30.286Z,101430.91
2023-05-13T11:56:13.105Z,101440.88
2023-05-13T11:58:42.899Z,101416.09
2023-05-13T12:01:17.670Z,101470.81
2023-05-13T12:03:50.426Z,101468.22
2023-05-13T12:06:21.271Z,101403.88
2023-05-13T12:08:51.015Z,101453.63
2023-05-13T12:11:20.898Z,101463.00
2023-05-13T12:13:50.920Z,101451.97
2023-05-13T12:16:20.779Z,101455.38
2023-05-13T12:19:02.701Z,101467.34
2023-05-13T12:21:35.347Z,101419.22
2023-05-13T12:24:05.103Z,101452.69
2023-05-13T12:26:34.850Z,101467.81
2023-05-13T12:29:05.010Z,101451.91
2023-05-13T12:31:35.089Z,101469.88
2023-05-13T12:34:07.546Z,101471.44
2023-05-13T12:36:40.716Z,101446.22
2023-05-13T12:39:12.143Z,101462.66
2023-05-13T12:41:43.969Z,101466.69
2023-05-13T12:44:17.267Z,101446.50
2023-05-13T12:46:53.021Z,101464.38
2023-05-13T12:49:25.484Z,101458.16
2023-05-13T12:51:55.925Z,101438.22
2023-05-13T12:54:25.815Z,101467.50
2023-05-13T12:56:55.597Z,101467.59
2023-05-13T12:59:26.758Z,101450.13
2023-05-13T13:01:57.646Z,101460.59
2023-05-13T13:04:30.919Z,101454.63
2023-05-13T13:07:00.752Z,101448.50
2023-05-13T13:09:30.504Z,101431.28
2023-05-13T13:12:00.265Z,101435.63
2023-05-13T13:14:29.993Z,101447.09
2023-05-13T13:16:59.780Z,101445.50
2023-05-13T13:19:32.117Z,101390.25
2023-05-13T13:22:01.903Z,101403.97
2023-05-13T13:24:31.699Z,101445.19
2023-05-13T13:27:01.483Z,101418.47
2023-05-13T13:29:31.236Z,101437.84
2023-05-13T13:32:01.070Z,101437.81
2023-05-13T13:34:33.411Z,101436.94
2023-05-13T13:37:03.179Z,101414.81
2023-05-13T13:39:33.594Z,101437.31
2023-05-13T13:42:04.792Z,101423.03
2023-05-13T13:44:38.539Z,101420.31
2023-05-13T13:47:08.329Z,101434.63
2023-05-13T13:49:40.665Z,101431.75
2023-05-13T13:52:11.299Z,101420.75
2023-05-13T13:54:41.010Z,101411.25
2023-05-13T13:57:10.780Z,101426.75
2023-05-13T13:59:40.495Z,101399.34
2023-05-13T14:02:10.296Z,101418.78
2023-05-13T14:04:42.773Z,101417.81
2023-05-13T14:07:12.695Z,101414.88
2023-05-13T14:09:42.429Z,101404.44
2023-05-13T14:12:12.314Z,101399.47
2023-05-13T14:14:42.048Z,101358.53
2023-05-13T14:17:13.171Z,101405.94
2023-05-13T14:19:46.952Z,101403.47
2023-05-13T14:22:16.702Z,101407.00
2023-05-13T14:24:46.498Z,101399.47
2023-05-13T14:27:16.320Z,101399.56
2023-05-13T14:29:46.094Z,101404.53
2023-05-13T14:32:16.059Z,101406.34
2023-05-13T14:34:48.899Z,101411.59
2023-05-13T14:37:18.698Z,101412.50
2023-05-13T14:39:50.077Z,101416.75
2023-05-13T14:42:20.212Z,101407.56
2023-05-13T14:44:49.978Z,101401.09
2023-05-13T14:47:19.751Z,101368.34
2023-05-13T14:49:52.068Z,101384.28
2023-05-13T14:52:21.901Z,101365.84
2023-05-13T14:54:52.244Z,101379.84
2023-05-13T14:57:22.179Z,101406.28
2023-05-13T14:59:51.899Z,101409.94
2023-05-13T15:02:21.670Z,101404.72
2023-05-13T15:04:54.162Z,101399.03
2023-05-13T15:07:24.086Z,101394.41
2023-05-13T15:09:53.914Z,101395.19
2023-05-13T15:12:23.748Z,101394.19
2023-05-13T15:14:56.620Z,101377.78
2023-05-13T15:17:26.546Z,101370.94
2023-05-13T15:19:58.911Z,101374.56
2023-05-13T15:22:28.694Z,101383.56
2023-05-13T15:24:58.427Z,101375.66
2023-05-13T15:27:29.398Z,101385.19
2023-05-13T15:29:59.864Z,101373.84
2023-05-13T15:32:30.224Z,101387.78
2023-05-13T15:35:02.693Z,101370.22
2023-05-13T15:37:32.506Z,101354.34
2023-05-13T15:40:02.306Z,101357.75
2023-05-13T15:42:32.037Z,101364.66
2023-05-13T15:45:02.035Z,101350.75
2023-05-13T15:47:32.052Z,101367.59
2023-05-13T15:50:04.774Z,101366.63
2023-05-13T15:52:34.647Z,101367.31
2023-05-13T15:55:04.376Z,101375.50
2023-05-13T15:57:34.120Z,101333.78
2023-05-13T16:00:04.016Z,101374.22
2023-05-13T16:02:39.435Z,101369.13
2023-05-13T16:05:12.313Z,101371.81
2023-05-13T16:07:42.025Z,101364.81
2023-05-13T16:10:12.582Z,101365.59
2023-05-13T16:12:43.294Z,101345.78
2023-05-13T16:15:14.118Z,101344.34
2023-05-13T16:17:43.932Z,101360.13
2023-05-13T16:20:16.511Z,101362.16
2023-05-13T16:22:46.381Z,101367.28
2023-05-13T16:25:16.424Z,101357.91
2023-05-13T16:27:46.212Z,101356.03
2023-05-13T16:30:16.404Z,101363.97
2023-05-13T16:32:49.027Z,101363.00
2023-05-13T16:35:21.767Z,101355.06
2023-05-13T16:37:51.798Z,101353.31
2023-05-13T16:40:21.675Z,101343.09
2023-05-13T16:42:51.646Z,101349.50
2023-05-13T16:45:21.880Z,101340.03
2023-05-13T16:47:51.852Z,101279.00
2023-05-13T16:50:24.912Z,101337.91
2023-05-13T16:52:54.935Z,101348.97
2023-05-13T16:55:26.169Z,101342.97
2023-05-13T16:57:56.318Z,101333.47
2023-05-13T17:00:26.350Z,101335.22
2023-05-13T17:02:56.172Z,101341.47
2023-05-13T17:05:30.149Z,101341.59
2023-05-13T17:07:59.852Z,101345.00
2023-05-13T17:10:29.652Z,101344.03
2023-05-13T17:12:59.415Z,101336.25
2023-05-13T17:15:29.274Z,101315.91
2023-05-13T17:17:59.148Z,101334.16
2023-05-13T17:20:31.514Z,101334.28
2023-05-13T17:23:01.305Z,101323.28
2023-05-13T17:25:31.181Z,101316.50
2023-05-13T17:28:01.050Z,101322.31
2023-05-13T17:30:30.826Z,101335.22
2023-05-13T17:33:00.578Z,101331.56
2023-05-13T17:35:32.959Z,101332.34
2023-05-13T17:38:02.680Z,101319.81
2023-05-13T17:40:32.622Z,101331.78
2023-05-13T17:43:03.717Z,101310.34
2023-05-13T17:45:35.793Z,101327.66
2023-05-13T17:48:05.835Z,101326.03
2023-05-13T17:50:38.502Z,101338.84
2023-05-13T17:53:09.634Z,101339.91
2023-05-13T17:55:39.598Z,101333.22
2023-05-13T17:58:09.693Z,101335.78
2023-05-13T18:00:39.560Z,101319.59
2023-05-13T18:03:09.692Z,101333.38
2023-05-13T18:05:42.546Z,101318.84
2023-05-13T18:08:12.719Z,101336.16
2023-05-13T18:10:42.816Z,101338.81
2023-05-13T18:13:12.917Z,101345.75
2023-05-13T18:15:43.196Z,101339.69
2023-05-13T18:18:13.667Z,101340.78
2023-05-13T18:20:46.140Z,101350.28
2023-05-13T18:23:16.487Z,101350.38
2023-05-13T18:25:54.942Z,101349.56
2023-05-13T18:28:25.605Z,101340.19
2023-05-13T18:30:55.332Z,101347.16
2023-05-13T18:33:25.102Z,101342.03
2023-05-13T18:35:57.422Z,101337.88
2023-05-13T18:38:27.176Z,101353.44
2023-05-13T18:40:57.005Z,101351.81
2023-05-13T18:43:26.907Z,101343.16
2023-05-13T18:45:57.989Z,101355.25
2023-05-13T18:48:27.924Z,101329.50
2023-05-13T18:51:00.334Z,101357.94
2023-05-13T18:53:30.183Z,101356.34
2023-05-13T18:56:00.167Z,101360.75
2023-05-13T18:58:29.929Z,101344.50
2023-05-13T19:00:59.713Z,101361.75
2023-05-13T19:03:29.648Z,101360.03
2023-05-13T19:06:02.050Z,101360.06
2023-05-13T19:08:31.809Z,101370.47
2023-05-13T19:11:01.563Z,101366.25
2023-05-13T19:13:39.815Z,101371.50
2023-05-13T19:16:17.204Z,101384.53
2023-05-13T19:18:47.050Z,101363.03
2023-05-13T19:21:19.859Z,101384.59
2023-05-13T19:23:49.585Z,101371.72
2023-05-13T19:26:19.500Z,101372.59
2023-05-13T19:28:49.667Z,101380.34
2023-05-13T19:31:19.576Z,101381.22
2023-05-13T19:33:49.365Z,101380.34
2023-05-13T19:36:23.880Z,101369.16
2023-05-13T19:38:53.625Z,101383.78
2023-05-13T19:41:23.351Z,101387.28
2023-05-13T19:43:53.227Z,101382.09
2023-05-13T19:46:23.150Z,101364.84
2023-05-13T19:48:52.928Z,101389.88
2023-05-13T19:51:26.888Z,101388.16
2023-05-13T19:53:56.899Z,101398.47
2023-05-13T19:56:26.727Z,101386.38
2023-05-13T19:58:56.458Z,101386.41
2023-05-13T20:01:27.046Z,101389.84
2023-05-13T20:03:57.451Z,101405.34
2023-05-13T20:06:29.850Z,101392.41
2023-05-13T20:09:00.927Z,101398.44
2023-05-13T20:11:31.502Z,101393.28
2023-05-13T20:14:01.731Z,101401.03
2023-05-13T20:16:31.520Z,101382.94
2023-05-13T20:19:03.194Z,101392.34
2023-05-13T20:21:35.641Z,101394.94
2023-05-13T20:24:05.342Z,101354.41
2023-05-13T20:26:35.871Z,101396.59
2023-05-13T20:29:05.730Z,101378.53
2023-05-13T20:31:35.585Z,101397.47
2023-05-13T20:34:06.269Z,101370.72
2023-05-13T20:36:38.928Z,101399.13
2023-05-13T20:39:08.708Z,101382.66
2023-05-13T20:41:38.469Z,101395.56
2023-05-13T20:44:08.249Z,101397.28
2023-05-13T20:46:38.029Z,101383.44
2023-05-13T20:49:08.107Z,101400.63
2023-05-13T20:51:41.253Z,101409.16
2023-05-13T20:54:11.522Z,101394.38
2023-05-13T20:56:41.285Z,101413.13
2023-05-13T20:59:11.502Z,101408.69
2023-05-13T21:01:41.989Z,101407.03
2023-05-13T21:04:11.857Z,101380.41
2023-05-13T21:06:44.284Z,101387.34
2023-05-13T21:09:14.085Z,101394.16
2023-05-13T21:11:43.821Z,101386.34
2023-05-13T21:14:13.572Z,101404.44
2023-05-13T21:16:43.546Z,101344.84
2023-05-13T21:19:21.344Z,101392.34
2023-05-13T21:21:54.221Z,101382.03
2023-05-13T21:24:23.998Z,101391.47
2023-05-13T21:26:53.987Z,101384.41
2023-05-13T21:29:23.765Z,101402.59
2023-05-13T21:31:54.661Z,101405.19
2023-05-13T21:34:24.534Z,101379.34
2023-05-13T21:36:56.879Z,101388.81
2023-05-13T21:39:26.678Z,101396.53
2023-05-13T21:41:56.466Z,101374.97
2023-05-13T21:44:26.891Z,101368.09
2023-05-13T21:46:56.636Z,101388.81
2023-05-13T21:49:26.943Z,101381.03
2023-05-13T21:51:59.328Z,101386.16
2023-05-13T21:54:29.196Z,101381.75
2023-05-13T21:56:58.990Z,101397.22
2023-05-13T21:59:28.843Z,101396.91
2023-05-13T22:01:58.606Z,101405.22
2023-05-13T22:04:28.377Z,101373.34
2023-05-13T22:07:00.719Z,101365.59
2023-05-13T22:09:30.537Z,101404.44
2023-05-13T22:12:00.358Z,101401.88
2023-05-13T22:14:30.098Z,101394.81
2023-05-13T22:17:08.999Z,101406.75
2023-05-13T22:19:39.705Z,101367.94
2023-05-13T22:22:12.103Z,101422.31
2023-05-13T22:24:41.840Z,101413.63
2023-05-13T22:27:11.827Z,101409.91
2023-05-13T22:29:41.590Z,101392.41
2023-05-13T22:32:11.429Z,101388.47
2023-05-13T22:34:41.257Z,101369.13
2023-05-13T22:37:13.571Z,101395.53
2023-05-13T22:39:43.299Z,101407.47
2023-05-13T22:42:13.059Z,101396.97
2023-05-13T22:44:42.844Z,101397.19
2023-05-13T22:47:12.650Z,101408.72
2023-05-13T22:49:42.450Z,101389.75
2023-05-13T22:52:14.858Z,101407.16
2023-05-13T22:54:44.682Z,101405.41
2023-05-13T22:57:14.442Z,101396.88
2023-05-13T22:59:44.199Z,101374.50
2023-05-13T23:02:13.981Z,101385.63
2023-05-13T23:04:43.776Z,101393.19
2023-05-13T23:07:16.120Z,101395.69
2023-05-13T23:09:46.043Z,101380.84
2023-05-13T23:12:16.024Z,101404.13
2023-05-13T23:14:45.941Z,101394.72
2023-05-13T23:17:16.061Z,101403.09
2023-05-13T23:19:45.830Z,101383.22
2023-05-13T23:22:18.219Z,101323.56
2023-05-13T23:24:47.997Z,101398.31
2023-05-13T23:27:19.311Z,101371.41
2023-05-13T23:29:49.087Z,101413.06
2023-05-13T23:32:19.274Z,101417.28
2023-05-13T23:34:49.055Z,101419.81
2023-05-13T23:37:22.331Z,101401.81
2023-05-13T23:39:52.127Z,101401.66
2023-05-13T23:42:21.909Z,101404.03
2023-05-13T23:44:51.664Z,101374.53
2023-05-13T23:47:21.848Z,101404.91
2023-05-13T23:49:51.599Z,101404.84
2023-05-13T23:52:24.137Z,101398.84
2023-05-13T23:54:53.999Z,101347.47
2023-05-13T23:57:24.071Z,101380.22
2023-05-13T23:59:53.810Z,101382.94
